Time;durP1;ratioP1;P1;durP2;ratioP2;P2;SDS_P1;SDS_P2;PMS_P1;PMS_P2;Temp;Humidity;BMP_temperature;BMP_pressure;BME280_temperature;BME280_humidity;BME280_pressure;Samples;Min_cycle;Max_cycle;Signal;HPM_P1;HPM_P2
2023/07/04 00:01:11;;;;;;;6.70;2.03;;;;;;;;;;5034662;28;20389;-61
2023/07/04 00:03:41;;;;;;;4.88;1.95;;;;;;;;;;5050512;28;20198;-61
2023/07/04 00:06:10;;;;;;;6.57;1.92;;;;;;;;;;5053671;28;20029;-61
2023/07/04 00:08:36;;;;;;;7.85;2.42;;;;;;;;;;5033319;28;20041;-61
2023/07/04 00:11:03;;;;;;;6.72;1.75;;;;;;;;;;5058863;28;20076;-62
2023/07/04 00:13:30;;;;;;;6.60;2.00;;;;;;;;;;5043872;28;20466;-60
2023/07/04 00:15:56;;;;;;;6.47;2.10;;;;;;;;;;5038725;28;20037;-60
2023/07/04 00:18:23;;;;;;;7.45;2.10;;;;;;;;;;5050603;28;20020;-61
2023/07/04 00:20:54;;;;;;;5.22;2.22;;;;;;;;;;5053122;28;20033;-61
2023/07/04 00:23:29;;;;;;;;;;;;;;;;;;5031835;28;20029;-61
2023/07/04 00:25:55;;;;;;;5.05;1.88;;;;;;;;;;5038799;28;19924;-61
2023/07/04 00:28:22;;;;;;;5.35;2.08;;;;;;;;;;5035293;28;20033;-61
2023/07/04 00:30:52;;;;;;;5.07;1.77;;;;;;;;;;5043633;28;20072;-61
2023/07/04 00:33:18;;;;;;;5.65;1.80;;;;;;;;;;5044275;28;20036;-63
2023/07/04 00:35:45;;;;;;;4.78;1.60;;;;;;;;;;5047848;28;20040;-61
2023/07/04 00:38:12;;;;;;;6.43;2.10;;;;;;;;;;5035856;28;20041;-61
2023/07/04 00:40:37;;;;;;;8.60;2.13;;;;;;;;;;5042588;28;20044;-62
2023/07/04 00:43:03;;;;;;;6.10;1.77;;;;;;;;;;5051667;28;20037;-62
2023/07/04 00:45:37;;;;;;;4.38;2.10;;;;;;;;;;5055823;28;20427;-60
2023/07/04 00:48:05;;;;;;;5.45;2.10;;;;;;;;;;5054158;28;20432;-61
2023/07/04 00:50:33;;;;;;;5.88;2.22;;;;;;;;;;5053673;28;20047;-61
2023/07/04 00:53:05;;;;;;;5.78;2.10;;;;;;;;;;5052323;28;20533;-63
2023/07/04 00:55:33;;;;;;;7.72;2.00;;;;;;;;;;5053304;28;20106;-61
2023/07/04 00:58:04;;;;;;;5.63;2.00;;;;;;;;;;5050371;28;20033;-61
2023/07/04 01:00:31;;;;;;;5.97;2.00;;;;;;;;;;5035828;28;20045;-61
2023/07/04 01:03:20;;;;;;;6.10;2.10;;;;;;;;;;5038243;28;20033;-61
2023/07/04 01:06:08;;;;;;;5.63;2.00;;;;;;;;;;5045782;28;20040;-61
2023/07/04 01:08:38;;;;;;;6.80;2.20;;;;;;;;;;5051621;28;20021;-61
2023/07/04 01:11:07;;;;;;;5.90;2.10;;;;;;;;;;5040483;28;20033;-61
2023/07/04 01:13:43;;;;;;;4.03;1.90;;;;;;;;;;5040321;28;20045;-61
2023/07/04 01:16:17;;;;;;;5.32;2.45;;;;;;;;;;5035118;28;20097;-63
2023/07/04 01:18:49;;;;;;;5.90;2.53;;;;;;;;;;5034044;28;20118;-61
2023/07/04 01:21:17;;;;;;;5.72;2.15;;;;;;;;;;5052439;28;20024;-62
2023/07/04 01:24:09;;;;;;;7.60;2.40;;;;;;;;;;5045476;28;20039;-63
2023/07/04 01:26:37;;;;;;;6.20;2.50;;;;;;;;;;5041865;28;20041;-62
2023/07/04 01:29:06;;;;;;;6.13;2.30;;;;;;;;;;5051930;28;20045;-61
2023/07/04 01:31:35;;;;;;;6.25;2.40;;;;;;;;;;5053696;28;20040;-62
2023/07/04 01:34:04;;;;;;;11.27;2.88;;;;;;;;;;5053057;28;20469;-62
2023/07/04 01:36:32;;;;;;;9.85;3.08;;;;;;;;;;5041100;28;20044;-62
2023/07/04 01:38:58;;;;;;;10.05;2.80;;;;;;;;;;5042173;28;20117;-61
2023/07/04 01:41:24;;;;;;;8.90;2.83;;;;;;;;;;5033581;28;20124;-62
2023/07/04 01:43:57;;;;;;;6.75;2.67;;;;;;;;;;5042907;28;20068;-60
2023/07/04 01:46:24;;;;;;;4.85;2.65;;;;;;;;;;5045323;28;20029;-61
2023/07/04 01:48:49;;;;;;;11.02;4.40;;;;;;;;;;5041580;28;20029;-61
2023/07/04 01:51:15;;;;;;;12.27;4.38;;;;;;;;;;5034985;28;20037;-61
2023/07/04 01:53:40;;;;;;;9.80;4.30;;;;;;;;;;5044697;28;20140;-61
2023/07/04 01:56:06;;;;;;;16.02;4.13;;;;;;;;;;5038477;28;20065;-61
2023/07/04 01:58:31;;;;;;;10.85;3.80;;;;;;;;;;5053007;28;20074;-61
2023/07/04 02:00:57;;;;;;;10.75;3.88;;;;;;;;;;5051820;28;20033;-61
2023/07/04 02:03:22;;;;;;;8.85;3.58;;;;;;;;;;5036052;28;20075;-62
2023/07/04 02:05:47;;;;;;;7.32;3.85;;;;;;;;;;5040823;28;20040;-62
2023/07/04 02:08:13;;;;;;;9.45;3.70;;;;;;;;;;5041319;28;20107;-62
2023/07/04 02:10:38;;;;;;;7.57;3.60;;;;;;;;;;5032560;28;20029;-61
2023/07/04 02:13:04;;;;;;;8.63;4.07;;;;;;;;;;5032886;28;20102;-61
2023/07/04 02:15:29;;;;;;;8.35;4.00;;;;;;;;;;5038819;28;20567;-61
2023/07/04 02:17:56;;;;;;;8.35;3.63;;;;;;;;;;5043077;28;20029;-61
2023/07/04 02:20:22;;;;;;;10.30;3.72;;;;;;;;;;5041966;28;20465;-61
2023/07/04 02:22:47;;;;;;;7.57;3.45;;;;;;;;;;5041426;28;20029;-61
2023/07/04 02:25:13;;;;;;;8.63;3.35;;;;;;;;;;5054956;28;20052;-61
2023/07/04 02:27:39;;;;;;;9.75;3.60;;;;;;;;;;5047972;28;20029;-61
2023/07/04 02:30:05;;;;;;;8.90;4.03;;;;;;;;;;5033144;28;20124;-61
2023/07/04 02:32:31;;;;;;;6.95;3.50;;;;;;;;;;5053618;28;20538;-61
2023/07/04 02:34:56;;;;;;;7.80;3.42;;;;;;;;;;5062817;28;20033;-61
2023/07/04 02:37:21;;;;;;;9.45;3.42;;;;;;;;;;5032465;28;20045;-62
2023/07/04 02:39:48;;;;;;;11.68;3.35;;;;;;;;;;5031653;28;20064;-62
2023/07/04 02:42:13;;;;;;;8.40;3.25;;;;;;;;;;5041841;28;20057;-60
2023/07/04 02:44:39;;;;;;;8.88;3.80;;;;;;;;;;5056552;28;20025;-61
2023/07/04 02:47:04;;;;;;;10.32;3.20;;;;;;;;;;5062487;28;20043;-60
2023/07/04 02:49:30;;;;;;;13.00;3.40;;;;;;;;;;5069368;28;20588;-60
2023/07/04 02:51:55;;;;;;;13.30;3.55;;;;;;;;;;5065849;28;20025;-62
2023/07/04 02:54:20;;;;;;;9.85;3.25;;;;;;;;;;5045572;28;20120;-62
2023/07/04 02:56:46;;;;;;;9.80;3.03;;;;;;;;;;5044229;28;20677;-61
2023/07/04 02:59:11;;;;;;;14.60;3.00;;;;;;;;;;5033005;28;20025;-61
2023/07/04 03:01:37;;;;;;;10.73;3.60;;;;;;;;;;5041286;28;20052;-61
2023/07/04 03:04:03;;;;;;;13.68;3.55;;;;;;;;;;5032352;28;20037;-61
2023/07/04 03:06:28;;;;;;;13.63;3.65;;;;;;;;;;5037774;28;20064;-62
2023/07/04 03:08:56;;;;;;;16.17;3.47;;;;;;;;;;5060552;28;20393;-61
2023/07/04 03:11:21;;;;;;;13.30;4.20;;;;;;;;;;5050986;28;20028;-62
2023/07/04 03:13:47;;;;;;;12.55;3.50;;;;;;;;;;5030418;28;20612;-61
2023/07/04 03:16:12;;;;;;;18.40;3.70;;;;;;;;;;5031464;28;20072;-62
2023/07/04 03:18:37;;;;;;;14.02;3.42;;;;;;;;;;5037244;28;20037;-62
2023/07/04 03:21:03;;;;;;;14.88;3.88;;;;;;;;;;5041928;28;20036;-62
2023/07/04 03:23:28;;;;;;;11.85;3.53;;;;;;;;;;5041257;28;20025;-62
2023/07/04 03:25:53;;;;;;;15.20;4.25;;;;;;;;;;5043937;28;20036;-61
2023/07/04 03:28:19;;;;;;;12.70;3.38;;;;;;;;;;5041393;28;20072;-61
2023/07/04 03:30:44;;;;;;;11.63;3.58;;;;;;;;;;5042575;28;20033;-61
2023/07/04 03:33:10;;;;;;;15.23;3.83;;;;;;;;;;5056552;28;20478;-61
2023/07/04 03:35:38;;;;;;;20.55;4.15;;;;;;;;;;5034989;28;20037;-62
2023/07/04 03:38:04;;;;;;;15.63;3.80;;;;;;;;;;5031162;28;20026;-61
2023/07/04 03:40:29;;;;;;;12.43;3.95;;;;;;;;;;5031610;28;20518;-61
2023/07/04 03:42:55;;;;;;;13.25;3.88;;;;;;;;;;5033644;28;20041;-61
2023/07/04 03:45:20;;;;;;;12.88;3.97;;;;;;;;;;5050870;28;20040;-61
2023/07/04 03:47:46;;;;;;;14.18;3.42;;;;;;;;;;5040734;28;20167;-62
2023/07/04 03:50:13;;;;;;;15.13;3.70;;;;;;;;;;5039812;28;20491;-62
2023/07/04 03:52:39;;;;;;;13.27;3.67;;;;;;;;;;5042538;28;20065;-61
2023/07/04 03:55:05;;;;;;;16.65;3.67;;;;;;;;;;5033152;28;20063;-63
2023/07/04 03:57:30;;;;;;;13.82;3.53;;;;;;;;;;5034597;28;20040;-61
2023/07/04 03:59:56;;;;;;;15.98;3.67;;;;;;;;;;5044116;28;20033;-61
2023/07/04 04:02:22;;;;;;;12.98;3.47;;;;;;;;;;5047787;28;20385;-61
2023/07/04 04:04:47;;;;;;;19.75;4.03;;;;;;;;;;5030026;28;20473;-61
2023/07/04 04:07:13;;;;;;;12.88;3.95;;;;;;;;;;5036217;28;20481;-61
2023/07/04 04:09:38;;;;;;;11.93;3.65;;;;;;;;;;5033955;28;20033;-61
2023/07/04 04:12:06;;;;;;;13.38;4.05;;;;;;;;;;5031708;28;20025;-60
2023/07/04 04:14:32;;;;;;;14.70;4.30;;;;;;;;;;5040703;28;20051;-61
2023/07/04 04:16:58;;;;;;;11.20;3.58;;;;;;;;;;5036310;28;20048;-61
2023/07/04 04:19:25;;;;;;;16.60;3.90;;;;;;;;;;5031532;28;20057;-61
2023/07/04 04:21:52;;;;;;;10.73;3.25;;;;;;;;;;5038897;28;20513;-61
2023/07/04 04:24:18;;;;;;;12.63;3.80;;;;;;;;;;5037286;28;20026;-61
2023/07/04 04:26:44;;;;;;;15.32;3.95;;;;;;;;;;5036759;28;20029;-61
2023/07/04 04:29:10;;;;;;;13.93;3.50;;;;;;;;;;5041273;28;20040;-61
2023/07/04 04:31:37;;;;;;;9.93;3.80;;;;;;;;;;5039871;28;20029;-61
2023/07/04 04:34:07;;;;;;;15.50;4.30;;;;;;;;;;5031975;28;20495;-61
2023/07/04 04:36:33;;;;;;;14.73;4.43;;;;;;;;;;5045464;28;20087;-61
2023/07/04 04:38:59;;;;;;;11.70;4.28;;;;;;;;;;5041589;28;20394;-61
2023/07/04 04:41:26;;;;;;;12.73;3.70;;;;;;;;;;5030409;28;20116;-63
2023/07/04 04:43:51;;;;;;;18.20;4.60;;;;;;;;;;5030588;28;20033;-60
2023/07/04 04:46:17;;;;;;;11.43;3.83;;;;;;;;;;5032293;28;20025;-62
2023/07/04 04:48:42;;;;;;;19.75;4.60;;;;;;;;;;5047948;28;20037;-61
2023/07/04 04:51:10;;;;;;;16.63;4.50;;;;;;;;;;5046293;28;20032;-61
2023/07/04 04:53:41;;;;;;;13.65;3.92;;;;;;;;;;5031308;28;20088;-62
2023/07/04 04:56:07;;;;;;;;;;;;;;;;;;5042818;28;20048;-61
2023/07/04 04:58:33;;;;;;;13.02;3.88;;;;;;;;;;5065338;28;19963;-62
2023/07/04 05:01:11;;;;;;;17.00;3.95;;;;;;;;;;5068536;28;20029;-61
2023/07/04 05:03:36;;;;;;;12.55;4.00;;;;;;;;;;5070728;28;20043;-60
2023/07/04 05:06:02;;;;;;;15.38;4.90;;;;;;;;;;5068529;28;20041;-62
2023/07/04 05:08:28;;;;;;;18.75;5.22;;;;;;;;;;5064176;28;20037;-62
2023/07/04 05:11:04;;;;;;;16.35;4.80;;;;;;;;;;5053009;28;20051;-61
2023/07/04 05:13:30;;;;;;;16.35;4.45;;;;;;;;;;5055085;28;20052;-61
2023/07/04 05:16:00;;;;;;;17.25;4.97;;;;;;;;;;5054374;28;20662;-62
2023/07/04 05:18:26;;;;;;;15.55;4.45;;;;;;;;;;5054694;28;20496;-61
2023/07/04 05:20:59;;;;;;;17.70;4.85;;;;;;;;;;5069142;28;20493;-61
2023/07/04 05:23:25;;;;;;;18.50;4.72;;;;;;;;;;5072423;28;20037;-61
2023/07/04 05:26:01;;;;;;;15.77;4.70;;;;;;;;;;5063576;28;20033;-61
2023/07/04 05:28:27;;;;;;;18.83;4.80;;;;;;;;;;5054908;28;20040;-61
2023/07/04 05:30:57;;;;;;;16.27;4.57;;;;;;;;;;5056754;28;20381;-61
2023/07/04 05:33:23;;;;;;;18.97;4.93;;;;;;;;;;5056995;28;20021;-62
2023/07/04 05:35:48;;;;;;;18.15;5.03;;;;;;;;;;5071947;28;20044;-61
2023/07/04 05:38:13;;;;;;;15.70;4.57;;;;;;;;;;5072023;28;20111;-61
2023/07/04 05:40:40;;;;;;;13.10;4.68;;;;;;;;;;5053635;28;20499;-62
2023/07/04 05:43:06;;;;;;;20.20;4.93;;;;;;;;;;5054440;28;20044;-62
2023/07/04 05:45:31;;;;;;;15.15;4.70;;;;;;;;;;5057906;28;20062;-61
2023/07/04 05:47:56;;;;;;;15.43;5.20;;;;;;;;;;5056387;28;20470;-61
2023/07/04 05:50:22;;;;;;;16.33;5.18;;;;;;;;;;5064469;28;20089;-61
2023/07/04 05:52:47;;;;;;;15.98;5.00;;;;;;;;;;5073263;28;20031;-62
2023/07/04 05:55:13;;;;;;;15.68;4.80;;;;;;;;;;5055753;28;20033;-61
2023/07/04 05:57:38;;;;;;;13.60;4.00;;;;;;;;;;5052416;28;20513;-64
2023/07/04 06:00:05;;;;;;;14.30;4.50;;;;;;;;;;5053619;28;20052;-61
2023/07/04 06:02:31;;;;;;;17.58;4.38;;;;;;;;;;5052746;28;20043;-62
2023/07/04 06:04:57;;;;;;;18.25;4.80;;;;;;;;;;5050590;28;20584;-60
2023/07/04 06:07:28;;;;;;;13.13;4.15;;;;;;;;;;5045426;28;20037;-63
2023/07/04 06:09:54;;;;;;;17.60;4.70;;;;;;;;;;5047789;28;20124;-61
2023/07/04 06:12:19;;;;;;;22.13;5.10;;;;;;;;;;5053389;28;20117;-60
2023/07/04 06:14:44;;;;;;;15.07;4.75;;;;;;;;;;5051612;28;20032;-61
2023/07/04 06:17:10;;;;;;;14.75;5.05;;;;;;;;;;5053457;28;20454;-61
2023/07/04 06:19:35;;;;;;;15.63;5.75;;;;;;;;;;5068255;28;20052;-62
2023/07/04 06:22:05;;;;;;;16.38;5.13;;;;;;;;;;5071865;28;20032;-62
2023/07/04 06:24:30;;;;;;;15.10;6.00;;;;;;;;;;5062772;28;20060;-61
2023/07/04 06:26:56;;;;;;;18.45;5.95;;;;;;;;;;5051432;28;20482;-61
2023/07/04 06:29:22;;;;;;;18.13;5.70;;;;;;;;;;5057990;28;20026;-61
2023/07/04 06:31:48;;;;;;;15.70;4.70;;;;;;;;;;5072582;28;20393;-62
2023/07/04 06:34:14;;;;;;;19.85;5.35;;;;;;;;;;5059956;28;20120;-61
2023/07/04 06:36:40;;;;;;;16.13;4.93;;;;;;;;;;5052765;28;20124;-61
2023/07/04 06:39:05;;;;;;;14.88;5.78;;;;;;;;;;5053387;28;20017;-61
2023/07/04 06:41:31;;;;;;;15.18;5.90;;;;;;;;;;5053017;28;20052;-61
2023/07/04 06:43:56;;;;;;;15.75;6.72;;;;;;;;;;5056228;28;20278;-61
2023/07/04 06:46:22;;;;;;;15.40;6.10;;;;;;;;;;5052145;28;20072;-61
2023/07/04 06:48:49;;;;;;;17.88;6.10;;;;;;;;;;5056503;28;20085;-63
2023/07/04 06:51:16;;;;;;;18.25;6.05;;;;;;;;;;5052734;28;20151;-62
2023/07/04 06:53:43;;;;;;;15.13;6.22;;;;;;;;;;5052230;28;20108;-63
2023/07/04 06:56:14;;;;;;;22.40;6.20;;;;;;;;;;5052949;28;20033;-64
2023/07/04 06:58:45;;;;;;;13.20;5.13;;;;;;;;;;5052291;28;20041;-63
2023/07/04 07:01:11;;;;;;;17.63;6.30;;;;;;;;;;5052552;28;20362;-62
2023/07/04 07:03:37;;;;;;;14.32;5.15;;;;;;;;;;5051542;28;20173;-62
2023/07/04 07:06:08;;;;;;;20.15;5.68;;;;;;;;;;5052651;28;20040;-62
2023/07/04 07:08:34;;;;;;;16.75;5.50;;;;;;;;;;5065561;28;20036;-61
2023/07/04 07:11:02;;;;;;;18.35;5.35;;;;;;;;;;5070409;28;20024;-62
2023/07/04 07:13:28;;;;;;;17.95;4.90;;;;;;;;;;5032600;28;20117;-63
2023/07/04 07:16:10;;;;;;;14.98;5.32;;;;;;;;;;5051039;28;20116;-62
2023/07/04 07:18:36;;;;;;;14.05;5.30;;;;;;;;;;5051029;28;20117;-63
2023/07/04 07:21:03;;;;;;;14.48;5.13;;;;;;;;;;5051436;28;20036;-62
2023/07/04 07:23:31;;;;;;;11.98;4.55;;;;;;;;;;5052053;28;20116;-61
2023/07/04 07:25:57;;;;;;;13.02;4.63;;;;;;;;;;5051947;28;20033;-63
2023/07/04 07:28:25;;;;;;;13.55;4.00;;;;;;;;;;5052243;28;20052;-63
2023/07/04 07:31:14;;;;;;;18.35;5.57;;;;;;;;;;5048146;28;20099;-62
2023/07/04 07:33:45;;;;;;;12.27;4.78;;;;;;;;;;5064278;28;20043;-62
2023/07/04 07:36:14;;;;;;;13.10;4.18;;;;;;;;;;5032885;28;20044;-62
2023/07/04 07:38:39;;;;;;;10.38;4.15;;;;;;;;;;5039929;28;20044;-63
2023/07/04 07:41:05;;;;;;;13.48;4.45;;;;;;;;;;5051463;28;20091;-60
2023/07/04 07:43:36;;;;;;;11.32;3.42;;;;;;;;;;5050255;28;20409;-62
2023/07/04 07:46:01;;;;;;;14.45;5.07;;;;;;;;;;5051356;28;20033;-62
2023/07/04 07:48:27;;;;;;;14.88;5.03;;;;;;;;;;5051725;28;20106;-62
2023/07/04 07:50:53;;;;;;;13.70;4.80;;;;;;;;;;5050982;28;20031;-62
2023/07/04 07:53:18;;;;;;;14.13;4.50;;;;;;;;;;5047552;28;20075;-61
2023/07/04 07:55:44;;;;;;;10.55;3.72;;;;;;;;;;5038114;28;20075;-64
2023/07/04 07:58:09;;;;;;;17.15;4.78;;;;;;;;;;5035947;28;20063;-62
2023/07/04 08:00:35;;;;;;;12.77;4.07;;;;;;;;;;5055864;28;20063;-62
2023/07/04 08:03:01;;;;;;;12.75;4.97;;;;;;;;;;5031954;28;20072;-63
2023/07/04 08:05:26;;;;;;;11.93;4.70;;;;;;;;;;5043478;28;20059;-61
2023/07/04 08:07:51;;;;;;;9.57;4.40;;;;;;;;;;5050812;28;20473;-63
2023/07/04 08:10:17;;;;;;;13.30;4.38;;;;;;;;;;5051593;28;20187;-62
2023/07/04 08:12:42;;;;;;;12.43;3.95;;;;;;;;;;5051157;28;20048;-65
2023/07/04 08:15:10;;;;;;;11.13;4.38;;;;;;;;;;5049832;28;20052;-64
2023/07/04 08:17:36;;;;;;;10.52;4.18;;;;;;;;;;5071364;28;20035;-64
2023/07/04 08:20:02;;;;;;;11.00;3.55;;;;;;;;;;5062192;28;20037;-63
2023/07/04 08:22:28;;;;;;;12.20;4.00;;;;;;;;;;5051438;28;20035;-63
2023/07/04 08:24:53;;;;;;;11.82;3.40;;;;;;;;;;5056199;28;20040;-61
2023/07/04 08:27:19;;;;;;;10.82;3.70;;;;;;;;;;5050310;28;20040;-62
2023/07/04 08:29:47;;;;;;;7.75;3.05;;;;;;;;;;5049223;28;20473;-62
2023/07/04 08:32:12;;;;;;;12.73;3.55;;;;;;;;;;5047423;28;20040;-61
2023/07/04 08:34:37;;;;;;;12.15;3.65;;;;;;;;;;5051444;28;20110;-62
2023/07/04 08:37:03;;;;;;;7.60;3.08;;;;;;;;;;5050753;28;20025;-63
2023/07/04 08:39:28;;;;;;;11.20;3.40;;;;;;;;;;5046490;28;20032;-64
2023/07/04 08:42:00;;;;;;;10.90;3.53;;;;;;;;;;5067343;28;20045;-62
2023/07/04 08:44:46;;;;;;;11.38;3.42;;;;;;;;;;5069605;28;20036;-61
2023/07/04 08:47:14;;;;;;;9.77;3.53;;;;;;;;;;5049111;28;20029;-63
2023/07/04 08:49:41;;;;;;;7.18;2.97;;;;;;;;;;5039172;28;20124;-62
2023/07/04 08:52:09;;;;;;;8.88;3.10;;;;;;;;;;5054619;28;20036;-63
2023/07/04 08:54:35;;;;;;;8.70;3.10;;;;;;;;;;5055359;28;20128;-63
2023/07/04 08:57:25;;;;;;;7.53;3.08;;;;;;;;;;5054399;28;20074;-62
2023/07/04 08:59:56;;;;;;;8.00;2.60;;;;;;;;;;5042678;28;20484;-63
2023/07/04 09:02:47;;;;;;;8.27;3.30;;;;;;;;;;5040444;28;20063;-61
2023/07/04 09:05:30;;;;;;;8.98;3.33;;;;;;;;;;5046726;28;20036;-61
2023/07/04 09:08:15;;;;;;;9.20;3.42;;;;;;;;;;5059823;28;20055;-61
2023/07/04 09:10:47;;;;;;;10.07;3.50;;;;;;;;;;5063495;28;20067;-61
2023/07/04 09:13:29;;;;;;;11.18;2.90;;;;;;;;;;5054603;28;20029;-61
2023/07/04 09:15:58;;;;;;;13.02;3.53;;;;;;;;;;5053960;28;20041;-62
2023/07/04 09:18:38;;;;;;;9.93;3.10;;;;;;;;;;5054835;28;20025;-62
2023/07/04 09:21:14;;;;;;;9.48;2.95;;;;;;;;;;5058492;28;20328;-62
2023/07/04 09:23:40;;;;;;;7.43;3.10;;;;;;;;;;5074693;28;20384;-61
2023/07/04 09:26:10;;;;;;;7.32;2.80;;;;;;;;;;5060099;28;20033;-63
2023/07/04 09:28:40;;;;;;;5.45;2.70;;;;;;;;;;5049736;28;20041;-62
2023/07/04 09:31:10;;;;;;;6.90;2.77;;;;;;;;;;5055827;28;20091;-63
2023/07/04 09:33:36;;;;;;;9.43;2.60;;;;;;;;;;5069331;28;20249;-62
2023/07/04 09:36:03;;;;;;;11.30;3.17;;;;;;;;;;5056640;28;20402;-62
2023/07/04 09:38:51;;;;;;;9.45;2.90;;;;;;;;;;5054562;28;20163;-61
2023/07/04 09:41:17;;;;;;;4.97;2.00;;;;;;;;;;5054391;28;20040;-63
2023/07/04 09:43:43;;;;;;;7.20;2.30;;;;;;;;;;5054731;28;20108;-63
2023/07/04 09:46:19;;;;;;;7.35;2.22;;;;;;;;;;5053471;28;20041;-62
2023/07/04 09:48:44;;;;;;;7.13;2.63;;;;;;;;;;5073182;28;20396;-64
2023/07/04 09:51:29;;;;;;;10.73;2.80;;;;;;;;;;5059340;28;20040;-61
2023/07/04 09:54:07;;;;;;;5.97;2.38;;;;;;;;;;5051676;28;20439;-62
2023/07/04 09:56:33;;;;;;;7.07;2.55;;;;;;;;;;5050411;28;20511;-62
2023/07/04 09:59:15;;;;;;;8.20;2.00;;;;;;;;;;5053423;28;20028;-61
2023/07/04 10:01:44;;;;;;;8.48;2.60;;;;;;;;;;5073475;28;20056;-63
2023/07/04 10:04:12;;;;;;;8.90;1.98;;;;;;;;;;5057839;28;20072;-64
2023/07/04 10:06:38;;;;;;;6.80;2.28;;;;;;;;;;5053857;28;20037;-62
2023/07/04 10:09:20;;;;;;;5.78;2.45;;;;;;;;;;5068617;28;20102;-60
2023/07/04 10:11:50;;;;;;;11.02;2.72;;;;;;;;;;5073297;28;20468;-64
2023/07/04 10:14:17;;;;;;;8.52;2.42;;;;;;;;;;5067734;28;20358;-62
2023/07/04 10:16:51;;;;;;;11.80;2.97;;;;;;;;;;5062763;28;20173;-61
2023/07/04 10:19:20;;;;;;;12.82;2.58;;;;;;;;;;5072235;28;20070;-61
2023/07/04 10:21:54;;;;;;;5.38;2.30;;;;;;;;;;5057518;28;20048;-61
2023/07/04 10:24:23;;;;;;;8.48;2.65;;;;;;;;;;5066523;28;20040;-61
2023/07/04 10:26:54;;;;;;;5.95;2.40;;;;;;;;;;5061439;28;20039;-62
2023/07/04 10:29:28;;;;;;;7.43;2.45;;;;;;;;;;5073435;28;20032;-61
2023/07/04 10:32:01;;;;;;;11.55;2.85;;;;;;;;;;5045451;28;20029;-61
2023/07/04 10:34:27;;;;;;;8.02;2.13;;;;;;;;;;5032133;28;20033;-61
2023/07/04 10:36:53;;;;;;;6.05;2.28;;;;;;;;;;5048834;28;20456;-61
2023/07/04 10:39:20;;;;;;;8.00;2.40;;;;;;;;;;5053182;28;20107;-61
2023/07/04 10:42:13;;;;;;;5.30;2.30;;;;;;;;;;5057289;28;20129;-61
2023/07/04 10:44:41;;;;;;;9.27;2.63;;;;;;;;;;5071527;28;20095;-61
2023/07/04 10:47:13;;;;;;;7.13;2.60;;;;;;;;;;5068475;28;20039;-61
2023/07/04 10:49:48;;;;;;;8.00;2.45;;;;;;;;;;5064802;28;20062;-61
2023/07/04 10:52:18;;;;;;;8.90;2.63;;;;;;;;;;5056596;28;20082;-62
2023/07/04 10:54:43;;;;;;;7.82;2.85;;;;;;;;;;5072985;28;20128;-62
2023/07/04 10:57:18;;;;;;;9.60;2.60;;;;;;;;;;5054688;28;20548;-62
2023/07/04 10:59:47;;;;;;;7.00;2.40;;;;;;;;;;5051788;28;20355;-63
2023/07/04 11:02:17;;;;;;;7.25;2.10;;;;;;;;;;5052447;28;20394;-63
2023/07/04 11:04:44;;;;;;;5.85;2.33;;;;;;;;;;5052869;28;20485;-64
2023/07/04 11:07:22;;;;;;;8.85;2.50;;;;;;;;;;5054311;28;20033;-63
2023/07/04 11:09:54;;;;;;;6.22;2.40;;;;;;;;;;5072486;28;20130;-68
2023/07/04 11:12:25;;;;;;;7.28;2.45;;;;;;;;;;5054637;28;20465;-65
2023/07/04 11:14:50;;;;;;;9.15;2.50;;;;;;;;;;5052233;28;20041;-68
2023/07/04 11:17:20;;;;;;;6.90;2.30;;;;;;;;;;5052323;28;20028;-62
2023/07/04 11:19:55;;;;;;;7.07;2.38;;;;;;;;;;5057297;28;20068;-61
2023/07/04 11:22:36;;;;;;;5.28;2.15;;;;;;;;;;5054526;28;20091;-63
2023/07/04 11:25:26;;;;;;;8.20;2.22;;;;;;;;;;5053889;28;20029;-61
2023/07/04 11:28:14;;;;;;;8.77;2.53;;;;;;;;;;5032034;28;20470;-66
2023/07/04 11:30:41;;;;;;;9.48;2.35;;;;;;;;;;5035456;28;20102;-62
2023/07/04 11:33:08;;;;;;;7.88;2.28;;;;;;;;;;5058060;28;20040;-61
2023/07/04 11:35:36;;;;;;;6.38;2.28;;;;;;;;;;5070161;28;20040;-61
2023/07/04 11:38:10;;;;;;;7.15;2.38;;;;;;;;;;5051334;28;20049;-61
2023/07/04 11:40:48;;;;;;;8.07;2.70;;;;;;;;;;5051559;28;20424;-64
2023/07/04 11:43:24;;;;;;;5.15;1.98;;;;;;;;;;5051476;28;20466;-63
2023/07/04 11:45:55;;;;;;;10.73;2.40;;;;;;;;;;5051878;28;20076;-65
2023/07/04 11:48:27;;;;;;;7.82;2.70;;;;;;;;;;5065099;28;20049;-62
2023/07/04 11:51:00;;;;;;;5.60;2.50;;;;;;;;;;5067187;28;20531;-65
2023/07/04 11:53:42;;;;;;;8.80;2.78;;;;;;;;;;5046210;28;20029;-64
2023/07/04 11:56:17;;;;;;;5.75;2.00;;;;;;;;;;5036701;28;20043;-63
2023/07/04 11:58:45;;;;;;;5.53;2.33;;;;;;;;;;5062388;28;20040;-62
2023/07/04 12:01:12;;;;;;;7.47;2.22;;;;;;;;;;5065203;28;20033;-63
2023/07/04 12:03:48;;;;;;;7.90;2.75;;;;;;;;;;5051820;28;20057;-63
2023/07/04 12:06:44;;;;;;;6.50;2.35;;;;;;;;;;5036909;28;20798;-62
2023/07/04 12:09:22;;;;;;;8.07;2.50;;;;;;;;;;5030508;28;20038;-62
2023/07/04 12:11:49;;;;;;;6.53;2.30;;;;;;;;;;5038440;28;20532;-63
2023/07/04 12:14:17;;;;;;;7.78;2.78;;;;;;;;;;5047921;28;20169;-63
2023/07/04 12:16:44;;;;;;;7.80;2.55;;;;;;;;;;5048736;28;20120;-63
2023/07/04 12:19:21;;;;;;;5.80;2.17;;;;;;;;;;5047375;28;20037;-64
2023/07/04 12:21:48;;;;;;;6.82;2.20;;;;;;;;;;5059860;28;20025;-63
2023/07/04 12:24:19;;;;;;;9.73;2.50;;;;;;;;;;5033853;28;20241;-63
2023/07/04 12:26:52;;;;;;;9.32;2.60;;;;;;;;;;5040702;28;20033;-62
2023/07/04 12:29:17;;;;;;;5.20;2.22;;;;;;;;;;5051008;28;20036;-63
2023/07/04 12:31:43;;;;;;;5.22;2.30;;;;;;;;;;5048800;28;20017;-61
2023/07/04 12:34:11;;;;;;;3.75;2.10;;;;;;;;;;5050670;28;20059;-61
2023/07/04 12:36:43;;;;;;;14.65;2.50;;;;;;;;;;5044933;28;20437;-61
2023/07/04 12:39:09;;;;;;;6.05;2.42;;;;;;;;;;5049342;28;20095;-62
2023/07/04 12:41:38;;;;;;;5.60;2.50;;;;;;;;;;5033382;28;20045;-63
2023/07/04 12:44:10;;;;;;;5.57;2.30;;;;;;;;;;5050697;28;20098;-63
2023/07/04 12:46:41;;;;;;;8.70;2.70;;;;;;;;;;5051167;28;20041;-63
2023/07/04 12:49:09;;;;;;;6.55;2.60;;;;;;;;;;5040021;28;20546;-63
2023/07/04 12:51:35;;;;;;;6.93;2.33;;;;;;;;;;5037295;28;20451;-62
2023/07/04 12:54:03;;;;;;;8.80;2.72;;;;;;;;;;5049316;28;20450;-61
2023/07/04 12:56:29;;;;;;;8.27;2.97;;;;;;;;;;5049942;28;20025;-61
2023/07/04 12:58:56;;;;;;;8.00;2.50;;;;;;;;;;5069831;28;20127;-63
2023/07/04 13:01:28;;;;;;;9.50;3.13;;;;;;;;;;5039145;28;20081;-61
2023/07/04 13:04:10;;;;;;;5.70;3.00;;;;;;;;;;5050887;28;20033;-65
2023/07/04 13:06:36;;;;;;;6.88;2.97;;;;;;;;;;5050039;28;20486;-61
2023/07/04 13:09:05;;;;;;;6.97;2.85;;;;;;;;;;5068966;28;20093;-64
2023/07/04 13:11:34;;;;;;;7.97;3.03;;;;;;;;;;5067373;28;20052;-62
2023/07/04 13:14:08;;;;;;;7.18;2.45;;;;;;;;;;5049146;28;20466;-62
2023/07/04 13:16:35;;;;;;;7.88;3.22;;;;;;;;;;5038511;28;20063;-61
2023/07/04 13:19:03;;;;;;;7.47;2.97;;;;;;;;;;5031982;28;20036;-63
2023/07/04 13:21:47;;;;;;;6.07;2.60;;;;;;;;;;5035294;28;20489;-62
2023/07/04 13:24:33;;;;;;;7.40;3.00;;;;;;;;;;5044531;28;20033;-62
2023/07/04 13:27:22;;;;;;;6.75;3.15;;;;;;;;;;5038197;28;20065;-63
2023/07/04 13:29:52;;;;;;;8.73;3.10;;;;;;;;;;5051056;28;20122;-63
2023/07/04 13:32:26;;;;;;;6.38;2.88;;;;;;;;;;5053252;28;20025;-60
2023/07/04 13:34:52;;;;;;;6.88;2.92;;;;;;;;;;5047097;28;20033;-62
2023/07/04 13:37:17;;;;;;;7.95;3.10;;;;;;;;;;5047834;28;20274;-62
2023/07/04 13:39:43;;;;;;;7.38;3.00;;;;;;;;;;5051498;28;20037;-63
2023/07/04 13:42:11;;;;;;;8.73;2.92;;;;;;;;;;5041228;28;20060;-63
2023/07/04 13:44:36;;;;;;;7.65;3.30;;;;;;;;;;5035673;28;20033;-62
2023/07/04 13:47:03;;;;;;;9.85;3.30;;;;;;;;;;5038761;28;20132;-65
2023/07/04 13:49:29;;;;;;;7.35;3.47;;;;;;;;;;5058844;28;20359;-62
2023/07/04 13:51:54;;;;;;;8.60;3.50;;;;;;;;;;5044475;28;20036;-63
2023/07/04 13:54:20;;;;;;;8.05;3.25;;;;;;;;;;5053114;28;20031;-63
2023/07/04 13:56:46;;;;;;;7.28;3.10;;;;;;;;;;5048640;28;20528;-60
2023/07/04 13:59:11;;;;;;;8.85;3.45;;;;;;;;;;5053210;28;20033;-62
2023/07/04 14:01:36;;;;;;;8.25;3.30;;;;;;;;;;5050978;28;22032;-63
2023/07/04 14:04:02;;;;;;;9.18;3.60;;;;;;;;;;5072232;28;20115;-63
2023/07/04 14:06:29;;;;;;;9.90;3.35;;;;;;;;;;5072753;28;20124;-62
2023/07/04 14:08:56;;;;;;;7.47;3.58;;;;;;;;;;5053948;28;20059;-63
2023/07/04 14:11:21;;;;;;;7.57;3.83;;;;;;;;;;5059809;28;20063;-62
2023/07/04 14:13:48;;;;;;;7.88;3.50;;;;;;;;;;5051847;28;20064;-61
2023/07/04 14:16:17;;;;;;;7.72;3.40;;;;;;;;;;5069056;28;20032;-62
2023/07/04 14:18:42;;;;;;;10.48;3.58;;;;;;;;;;5054363;28;20041;-60
2023/07/04 14:21:11;;;;;;;8.18;3.80;;;;;;;;;;5052748;28;20091;-62
2023/07/04 14:23:37;;;;;;;7.50;3.78;;;;;;;;;;5053630;28;20033;-62
2023/07/04 14:26:03;;;;;;;8.93;3.78;;;;;;;;;;5052669;28;20033;-63
2023/07/04 14:28:29;;;;;;;8.75;3.70;;;;;;;;;;5053490;28;20079;-62
2023/07/04 14:30:56;;;;;;;7.07;3.58;;;;;;;;;;5053305;28;20033;-62
2023/07/04 14:33:22;;;;;;;9.85;4.03;;;;;;;;;;5065546;28;20037;-63
2023/07/04 14:35:48;;;;;;;6.90;3.47;;;;;;;;;;5073448;28;20111;-62
2023/07/04 14:38:14;;;;;;;9.35;3.90;;;;;;;;;;5057864;28;20361;-62
2023/07/04 14:40:41;;;;;;;8.07;4.10;;;;;;;;;;5053184;28;20035;-62
2023/07/04 14:43:08;;;;;;;6.50;3.50;;;;;;;;;;5049722;28;20049;-61
2023/07/04 14:45:33;;;;;;;7.45;3.60;;;;;;;;;;5053341;28;20041;-61
2023/07/04 14:47:58;;;;;;;8.48;4.30;;;;;;;;;;5053045;28;20037;-62